アルジェ の空港の天気 - METARとTAF

ウアリ・ブーメディアン空港 ( DAAG / ALG ) - アルジェリア アルジェ
飛行場実況気象(Metar)
観測時間12/14 07:00 CET (12/14 06:00 UTC)
風向・風速北 7m/s
視程8000m
天気現象
少しの雲 雲底高度 490m
全天の4割程度の雲 雲底高度 610m
少しの雲 雲底高度 790m
気温12℃
湿度88%
気圧1006hPa
METARDAAG 140600Z 35014KT 320V020 8000 FEW016 SCT020 FEW026CB 12/10 Q1006 RETS
過去の天気等 Google飛行場航空写真 Wunderground天気予報

過去48時間のMETAR

飛行場予報(TAF)
発表時間: 12/14 06:00 CET (12/14 05:00 UTC)
予報対象時間: 14日7時 CET ~ 15日7時 CET
風向・風速西 6m/s
視程7000m
天気現象弱い雨
少しの雲 雲底高度 610m
全天の8割程度の雲 雲底高度 1310m
14日7時 CET ~ 14日17時 CET に一時的に
風向・風速西 8m/s 瞬間風速 13m/s
視程5000m
天気現象雷雨
少しの積乱雲 雲底高度 790m
14日9時 CET ~ 14日13時 CET に 確率 40% で一時的に
風向・風速西 10m/s 瞬間風速 15m/s
視程3000m
天気現象しゅう雨
全天の4割程度の積乱雲 雲底高度 700m
TAF DAAG 140500Z 1406/1506 27012KT 7000 -RA FEW020 BKN043
TEMPO 1406/1416 27015G25KT 5000 TSRA FEW026CB
PROB40 TEMPO 1408/1412 27020G30KT 3000 SHRA SCT023CB